ZSWIN FACT-FACT
Flight info
| Callsign | ZSWIN |
|---|---|
| Flight time | N/A |
| Altitude | 1500 |
| Route | DCT |
| Aircraft | SF50/L-SD/C |
Departure
| Time | 2026-05-04 09:43 |
|---|---|
| Airport | Cape Town International Airport (FACT) |
Arrival
| Time | N/A |
|---|---|
| Airport | Cape Town International Airport (FACT) |
| Time | Latitude | Longitude | Altitude | Speed | Heading |
|---|---|---|---|---|---|
| 2026-05-04 09:43 | -34.06121 | 18.49787 | 2785 ft | 238 kts | 189° |
| 2026-05-04 09:44 | -34.06337 | 18.49770 | 2860 ft | 233 kts | 178° |
| 2026-05-04 09:44 | -34.07808 | 18.50095 | 2572 ft | 207 kts | 158° |
| 2026-05-04 09:44 | -34.08479 | 18.51182 | 2603 ft | 141 kts | 74° |
| 2026-05-04 09:46 | -34.09588 | 18.51320 | 1462 ft | 131 kts | 162° |
| 2026-05-04 09:46 | -34.10475 | 18.51651 | 1755 ft | 139 kts | 161° |
| 2026-05-04 09:46 | -34.11418 | 18.51989 | 1971 ft | 151 kts | 162° |
| 2026-05-04 09:47 | -34.12479 | 18.52368 | 2140 ft | 155 kts | 162° |
| 2026-05-04 09:47 | -34.13531 | 18.52745 | 1970 ft | 166 kts | 163° |
| 2026-05-04 09:49 | -34.21454 | 18.54256 | 2027 ft | 165 kts | 172° |
| 2026-05-04 09:49 | -34.22637 | 18.54420 | 2007 ft | 176 kts | 173° |
| 2026-05-04 09:49 | -34.23862 | 18.54515 | 2024 ft | 179 kts | 175° |
| 2026-05-04 09:51 | -34.31072 | 18.55316 | 2018 ft | 174 kts | 172° |
| 2026-05-04 09:51 | -34.32293 | 18.55371 | 1991 ft | 176 kts | 180° |
| 2026-05-04 09:51 | -34.33497 | 18.55307 | 2024 ft | 177 kts | 181° |
| 2026-05-04 09:51 | -34.34728 | 18.55228 | 2015 ft | 176 kts | 182° |
| 2026-05-04 09:52 | -34.35907 | 18.54877 | 2013 ft | 174 kts | 205° |
| 2026-05-04 09:52 | -34.36952 | 18.54134 | 1996 ft | 174 kts | 212° |
| 2026-05-04 09:52 | -34.37875 | 18.53232 | 2021 ft | 172 kts | 220° |
| 2026-05-04 09:52 | -34.38738 | 18.52258 | 2014 ft | 171 kts | 225° |
| 2026-05-04 09:53 | -34.39487 | 18.51166 | 2021 ft | 168 kts | 231° |
| 2026-05-04 09:53 | -34.40193 | 18.50039 | 1993 ft | 167 kts | 231° |
| 2026-05-04 09:53 | -34.40881 | 18.48933 | 2021 ft | 166 kts | 232° |
| 2026-05-04 09:53 | -34.41567 | 18.47827 | 2018 ft | 165 kts | 232° |
| 2026-05-04 09:54 | -34.42249 | 18.46729 | 2012 ft | 161 kts | 232° |
| 2026-05-04 09:54 | -34.42873 | 18.45590 | 1996 ft | 162 kts | 240° |
| 2026-05-04 09:54 | -34.43381 | 18.44412 | 2024 ft | 161 kts | 242° |
| 2026-05-04 09:54 | -34.43843 | 18.43180 | 2008 ft | 160 kts | 252° |
| 2026-05-04 09:55 | -34.44040 | 18.41871 | 2023 ft | 160 kts | 261° |
| 2026-05-04 09:55 | -34.44169 | 18.40527 | 1995 ft | 161 kts | 266° |
| 2026-05-04 09:55 | -34.44039 | 18.39210 | 2030 ft | 161 kts | 280° |
| 2026-05-04 09:55 | -34.43768 | 18.37892 | 2013 ft | 160 kts | 288° |
| 2026-05-04 09:56 | -34.43248 | 18.36717 | 2023 ft | 159 kts | 301° |
| 2026-05-04 09:56 | -34.42647 | 18.35592 | 1999 ft | 160 kts | 302° |
| 2026-05-04 09:56 | -34.42048 | 18.34490 | 2016 ft | 157 kts | 302° |
| 2026-05-04 09:56 | -34.41458 | 18.33408 | 2018 ft | 152 kts | 302° |
| 2026-05-04 09:57 | -34.40884 | 18.32358 | 2009 ft | 147 kts | 302° |
| 2026-05-04 09:57 | -34.40165 | 18.31467 | 2004 ft | 151 kts | 328° |
| 2026-05-04 09:57 | -34.39214 | 18.30861 | 2048 ft | 161 kts | 335° |
| 2026-05-04 09:57 | -34.38128 | 18.30590 | 2019 ft | 161 kts | 357° |
| 2026-05-04 09:58 | -34.37009 | 18.30516 | 2019 ft | 159 kts | 343° |
| 2026-05-04 09:58 | -34.36011 | 18.29968 | 1991 ft | 157 kts | 335° |
| 2026-05-04 09:58 | -34.34982 | 18.29547 | 2025 ft | 158 kts | 344° |
| 2026-05-04 10:00 | -34.27082 | 18.27708 | 1997 ft | 179 kts | 357° |
| 2026-05-04 10:00 | -34.25863 | 18.27592 | 2024 ft | 179 kts | 353° |
| 2026-05-04 10:02 | -34.17337 | 18.26898 | 1990 ft | 168 kts | 353° |
| 2026-05-04 10:04 | -34.09552 | 18.25847 | 1331 ft | 161 kts | 353° |
| 2026-05-04 10:04 | -34.08431 | 18.25695 | 1055 ft | 163 kts | 352° |
| 2026-05-04 10:04 | -34.07330 | 18.25547 | 823 ft | 163 kts | 352° |
| 2026-05-04 10:04 | -34.06215 | 18.25397 | 586 ft | 161 kts | 353° |
| 2026-05-04 10:05 | -34.05115 | 18.25250 | 480 ft | 158 kts | 353° |
| 2026-05-04 10:05 | -34.03998 | 18.25100 | 472 ft | 165 kts | 352° |
| 2026-05-04 10:05 | -34.02834 | 18.24942 | 510 ft | 173 kts | 352° |
| 2026-05-04 10:05 | -34.01626 | 18.24793 | 486 ft | 174 kts | 355° |
| 2026-05-04 10:06 | -34.00411 | 18.24778 | 494 ft | 173 kts | 1° |
| 2026-05-04 10:06 | -33.99216 | 18.24854 | 458 ft | 173 kts | 2° |
| 2026-05-04 10:06 | -33.98017 | 18.24943 | 496 ft | 175 kts | 2° |
| 2026-05-04 10:08 | -33.90934 | 18.25510 | 488 ft | 163 kts | 4° |
| 2026-05-04 10:08 | -33.89798 | 18.25613 | 474 ft | 167 kts | 3° |
| 2026-05-04 10:08 | -33.88646 | 18.25819 | 492 ft | 169 kts | 15° |
| 2026-05-04 10:08 | -33.87560 | 18.26320 | 492 ft | 169 kts | 22° |
| 2026-05-04 10:09 | -33.86484 | 18.26917 | 480 ft | 171 kts | 31° |
| 2026-05-04 10:09 | -33.85579 | 18.27836 | 465 ft | 173 kts | 47° |
| 2026-05-04 10:09 | -33.84782 | 18.28918 | 498 ft | 175 kts | 45° |
| 2026-05-04 10:09 | -33.83922 | 18.29928 | 484 ft | 174 kts | 43° |
| 2026-05-04 10:10 | -33.83046 | 18.30933 | 489 ft | 173 kts | 43° |
| 2026-05-04 10:10 | -33.82166 | 18.31939 | 453 ft | 175 kts | 43° |
| 2026-05-04 10:10 | -33.81292 | 18.32937 | 375 ft | 174 kts | 43° |
| 2026-05-04 10:10 | -33.80425 | 18.33929 | 209 ft | 172 kts | 43° |
| 2026-05-04 10:11 | -33.79558 | 18.34921 | 185 ft | 171 kts | 43° |
| 2026-05-04 10:11 | -33.78689 | 18.35916 | 168 ft | 173 kts | 43° |
| 2026-05-04 10:11 | -33.77831 | 18.36897 | 194 ft | 176 kts | 43° |
| 2026-05-04 10:11 | -33.76950 | 18.37904 | 187 ft | 172 kts | 43° |
| 2026-05-04 10:12 | -33.76104 | 18.38872 | 179 ft | 167 kts | 43° |
| 2026-05-04 10:12 | -33.75261 | 18.39845 | 169 ft | 167 kts | 44° |
| 2026-05-04 10:12 | -33.74360 | 18.40688 | 175 ft | 167 kts | 19° |
| 2026-05-04 10:12 | -33.73219 | 18.40664 | 208 ft | 165 kts | 347° |
| 2026-05-04 10:13 | -33.72107 | 18.40309 | 190 ft | 165 kts | 344° |
| 2026-05-04 10:13 | -33.71002 | 18.39929 | 159 ft | 163 kts | 344° |
| 2026-05-04 10:13 | -33.69925 | 18.39556 | 197 ft | 162 kts | 344° |
| 2026-05-04 10:13 | -33.68854 | 18.39186 | 185 ft | 161 kts | 344° |
| 2026-05-04 10:14 | -33.67780 | 18.38815 | 189 ft | 160 kts | 344° |
| 2026-05-04 10:14 | -33.66710 | 18.38446 | 298 ft | 157 kts | 344° |
| 2026-05-04 10:16 | -33.59489 | 18.38369 | 978 ft | 162 kts | 44° |
| 2026-05-04 10:16 | -33.58869 | 18.39507 | 974 ft | 163 kts | 63° |
| 2026-05-04 10:16 | -33.58370 | 18.40706 | 996 ft | 163 kts | 65° |
| 2026-05-04 10:16 | -33.58161 | 18.42025 | 989 ft | 161 kts | 90° |
| 2026-05-04 10:17 | -33.58215 | 18.43356 | 1010 ft | 157 kts | 94° |
| 2026-05-04 10:17 | -33.58287 | 18.44600 | 988 ft | 146 kts | 94° |
| 2026-05-04 10:19 | -33.61782 | 18.47106 | 827 ft | 114 kts | 182° |
| 2026-05-04 10:19 | -33.62564 | 18.47102 | 793 ft | 114 kts | 178° |
| 2026-05-04 10:19 | -33.63341 | 18.47144 | 769 ft | 111 kts | 177° |
| 2026-05-04 10:19 | -33.64111 | 18.47188 | 532 ft | 110 kts | 178° |
| 2026-05-04 10:20 | -33.64896 | 18.47219 | 217 ft | 110 kts | 180° |
| 2026-05-04 10:20 | -33.65588 | 18.47260 | 205 ft | 105 kts | 176° |
| 2026-05-04 10:20 | -33.66099 | 18.47377 | 398 ft | 124 kts | 158° |